createdAt,value
2022-09-07T00:00:31.533Z,15.78
2022-09-07T00:03:00.283Z,15.82
2022-09-07T00:05:28.281Z,15.76
2022-09-07T00:07:55.481Z,15.72
2022-09-07T00:10:23.347Z,15.69
2022-09-07T00:12:50.638Z,15.70
2022-09-07T00:15:18.208Z,15.69
2022-09-07T00:17:45.108Z,15.72
2022-09-07T00:20:13.370Z,15.68
2022-09-07T00:22:40.240Z,15.66
2022-09-07T00:25:07.853Z,15.65
2022-09-07T00:27:34.798Z,15.63
2022-09-07T00:30:01.622Z,15.60
2022-09-07T00:32:28.488Z,15.59
2022-09-07T00:34:55.332Z,15.56
2022-09-07T00:37:23.941Z,15.53
2022-09-07T00:39:51.974Z,15.58
2022-09-07T00:42:20.018Z,15.57
2022-09-07T00:45:10.183Z,15.64
2022-09-07T00:47:47.572Z,15.70
2022-09-07T00:50:20.275Z,15.77
2022-09-07T00:52:53.209Z,15.73
2022-09-07T00:55:20.856Z,15.72
2022-09-07T00:57:52.223Z,15.79
2022-09-07T01:00:19.705Z,15.80
2022-09-07T01:02:48.597Z,15.84
2022-09-07T01:05:22.820Z,15.81
2022-09-07T01:07:51.146Z,15.88
2022-09-07T01:10:18.816Z,15.89
2022-09-07T01:12:45.673Z,16.00
2022-09-07T01:15:12.659Z,16.03
2022-09-07T01:17:54.832Z,15.99
2022-09-07T01:20:54.012Z,16.07
2022-09-07T01:23:52.589Z,16.09
2022-09-07T01:26:52.986Z,15.97
2022-09-07T01:29:28.566Z,15.97
2022-09-07T01:32:02.419Z,15.98
2022-09-07T01:34:29.545Z,16.01
2022-09-07T01:37:01.772Z,15.98
2022-09-07T01:39:35.645Z,15.99
2022-09-07T01:42:08.652Z,15.98
2022-09-07T01:44:41.805Z,15.98
2022-09-07T01:47:15.406Z,15.99
2022-09-07T01:49:48.535Z,16.00
2022-09-07T01:52:22.039Z,15.98
2022-09-07T01:54:55.255Z,15.94
2022-09-07T01:57:29.478Z,15.92
2022-09-07T02:00:04.580Z,15.94
2022-09-07T02:02:38.238Z,15.89
2022-09-07T02:05:09.673Z,15.88
2022-09-07T02:07:42.491Z,15.81
2022-09-07T02:10:14.179Z,15.82
2022-09-07T02:12:47.669Z,15.82
2022-09-07T02:15:21.671Z,15.74
2022-09-07T02:17:52.252Z,15.72
2022-09-07T02:20:23.307Z,15.83
2022-09-07T02:22:55.731Z,15.72
2022-09-07T02:25:24.713Z,15.73
2022-09-07T02:27:55.564Z,15.71
2022-09-07T02:30:23.905Z,15.69
2022-09-07T02:32:50.960Z,15.69
2022-09-07T02:35:18.102Z,15.67
2022-09-07T02:37:45.537Z,15.70
2022-09-07T02:40:12.991Z,15.66
2022-09-07T02:42:39.956Z,15.63
2022-09-07T02:45:10.800Z,15.60
2022-09-07T02:48:01.456Z,15.61
2022-09-07T02:51:02.515Z,15.61
2022-09-07T02:54:03.633Z,15.60
2022-09-07T02:56:44.420Z,15.64
2022-09-07T02:59:27.362Z,15.59
2022-09-07T03:02:01.684Z,15.53
2022-09-07T03:04:40.792Z,15.49
2022-09-07T03:07:11.611Z,15.43
2022-09-07T03:09:43.570Z,15.37
2022-09-07T03:12:10.666Z,15.28
2022-09-07T03:14:40.113Z,15.20
2022-09-07T03:17:07.793Z,15.20
2022-09-07T03:19:36.195Z,15.16
2022-09-07T03:22:03.901Z,15.12
2022-09-07T03:24:31.189Z,15.19
2022-09-07T03:26:58.505Z,15.24
2022-09-07T03:29:25.508Z,15.25
2022-09-07T03:31:52.342Z,15.29
2022-09-07T03:34:19.253Z,15.31
2022-09-07T03:36:47.630Z,15.29
2022-09-07T03:39:14.566Z,15.28
2022-09-07T03:41:41.570Z,15.25
2022-09-07T03:44:08.785Z,15.26
2022-09-07T03:46:35.702Z,15.22
2022-09-07T03:49:02.802Z,15.18
2022-09-07T03:51:29.853Z,15.20
2022-09-07T03:54:00.399Z,15.22
2022-09-07T03:56:27.621Z,15.22
2022-09-07T03:58:55.073Z,15.26
2022-09-07T04:01:23.738Z,15.25
2022-09-07T04:03:51.539Z,15.23
2022-09-07T04:06:19.492Z,15.27
2022-09-07T04:08:46.920Z,15.25
2022-09-07T04:11:17.453Z,15.22
2022-09-07T04:13:44.705Z,15.22
2022-09-07T04:16:14.464Z,15.20
2022-09-07T04:18:41.418Z,15.14
2022-09-07T04:21:08.366Z,15.08
2022-09-07T04:23:37.573Z,15.08
2022-09-07T04:26:04.388Z,15.08
2022-09-07T04:28:38.310Z,15.05
2022-09-07T04:31:05.380Z,15.04
2022-09-07T04:33:32.619Z,15.05
2022-09-07T04:36:00.734Z,15.01
2022-09-07T04:38:28.297Z,14.97
2022-09-07T04:40:59.525Z,14.94
2022-09-07T04:43:26.583Z,14.91
2022-09-07T04:45:54.936Z,14.87
2022-09-07T04:48:21.991Z,14.92
2022-09-07T04:50:48.864Z,14.87
2022-09-07T04:53:15.728Z,14.84
2022-09-07T04:55:42.566Z,14.79
2022-09-07T04:58:09.798Z,14.79
2022-09-07T05:00:39.157Z,14.80
2022-09-07T05:03:07.421Z,14.82
2022-09-07T05:05:37.852Z,14.83
2022-09-07T05:08:04.827Z,14.82
2022-09-07T05:10:31.889Z,14.82
2022-09-07T05:12:58.752Z,14.82
2022-09-07T05:15:25.525Z,14.83
2022-09-07T05:17:52.368Z,14.84
2022-09-07T05:20:21.420Z,14.87
2022-09-07T05:22:48.387Z,14.88
2022-09-07T05:25:15.339Z,14.89
2022-09-07T05:27:42.452Z,14.88
2022-09-07T05:32:57.435Z,14.92
2022-09-07T05:35:25.715Z,14.95
2022-09-07T05:37:52.796Z,14.97
2022-09-07T05:40:19.682Z,14.99
2022-09-07T05:42:46.568Z,15.03
2022-09-07T05:45:13.512Z,15.08
2022-09-07T05:47:40.414Z,15.11
2022-09-07T05:50:09.202Z,15.12
2022-09-07T05:52:37.419Z,15.13
2022-09-07T05:55:19.614Z,15.15
2022-09-07T05:57:51.674Z,15.20
2022-09-07T06:00:21.631Z,15.26
2022-09-07T06:02:48.696Z,15.28
2022-09-07T06:05:15.688Z,15.39
2022-09-07T06:07:48.028Z,15.44
2022-09-07T06:13:02.153Z,15.52
2022-09-07T06:15:29.015Z,15.60
2022-09-07T06:17:55.950Z,15.66
2022-09-07T06:20:22.873Z,15.77
2022-09-07T06:22:51.021Z,15.93
2022-09-07T06:25:17.823Z,15.93
2022-09-07T06:27:48.593Z,15.99
2022-09-07T06:30:15.479Z,15.94
2022-09-07T06:35:14.759Z,15.86
2022-09-07T06:37:42.159Z,15.75
2022-09-07T06:40:11.726Z,15.92
2022-09-07T06:42:39.045Z,16.33
2022-09-07T06:45:06.750Z,16.42
2022-09-07T06:47:33.558Z,16.66
2022-09-07T06:50:00.377Z,16.75
2022-09-07T06:52:28.241Z,16.54
2022-09-07T06:57:24.200Z,16.97
2022-09-07T06:59:51.016Z,17.16
2022-09-07T07:02:17.804Z,17.92
2022-09-07T07:04:46.595Z,18.35
2022-09-07T07:07:14.068Z,18.67
2022-09-07T07:09:41.923Z,18.86
2022-09-07T07:12:08.864Z,19.26
2022-09-07T07:14:38.682Z,19.30
2022-09-07T07:17:08.103Z,19.60
2022-09-07T07:19:34.881Z,20.09
2022-09-07T07:24:48.491Z,19.82
2022-09-07T07:27:15.539Z,19.87
2022-09-07T07:29:43.744Z,20.26
2022-09-07T07:32:10.600Z,20.09
2022-09-07T07:34:37.482Z,20.56
2022-09-07T07:37:04.310Z,21.02
2022-09-07T07:42:18.441Z,21.12
2022-09-07T07:44:46.903Z,21.12
2022-09-07T07:47:13.980Z,21.21
2022-09-07T07:49:40.786Z,21.25
2022-09-07T07:54:54.309Z,21.62
2022-09-07T07:57:21.147Z,21.27
2022-09-07T07:59:49.564Z,21.06
2022-09-07T08:02:17.354Z,21.37
2022-09-07T08:04:44.456Z,21.42
2022-09-07T08:07:14.426Z,21.58
2022-09-07T08:09:42.495Z,21.50
2022-09-07T08:12:11.377Z,21.02
2022-09-07T08:14:42.408Z,21.09
2022-09-07T08:17:12.791Z,21.35
2022-09-07T08:19:57.335Z,21.42
2022-09-07T08:22:34.717Z,21.74
2022-09-07T08:25:01.924Z,21.28
2022-09-07T08:27:29.403Z,21.28
2022-09-07T08:29:56.399Z,21.32
2022-09-07T08:32:24.755Z,21.08
2022-09-07T08:34:51.598Z,21.14
2022-09-07T08:37:18.577Z,21.20
2022-09-07T08:39:45.360Z,21.32
2022-09-07T08:42:26.254Z,21.41
2022-09-07T08:44:57.827Z,21.33
2022-09-07T08:47:32.569Z,21.26
2022-09-07T08:50:04.731Z,20.86
2022-09-07T08:52:45.795Z,20.62
2022-09-07T08:55:19.019Z,20.44
2022-09-07T08:57:51.654Z,20.50
2022-09-07T09:00:19.235Z,20.53
2022-09-07T09:03:28.558Z,20.36
2022-09-07T09:05:44.987Z,20.20
2022-09-07T09:08:22.827Z,20.10
2022-09-07T09:10:58.576Z,20.01
2022-09-07T09:13:38.094Z,20.39
2022-09-07T09:16:11.419Z,20.33
2022-09-07T09:18:52.535Z,20.14
2022-09-07T09:21:20.267Z,20.30
2022-09-07T09:29:15.865Z,20.48
2022-09-07T09:31:42.813Z,20.32
2022-09-07T09:34:13.310Z,20.70
2022-09-07T09:36:46.601Z,20.85
2022-09-07T09:39:31.371Z,21.08
2022-09-07T09:42:01.933Z,21.15
2022-09-07T09:44:33.792Z,21.39
2022-09-07T09:49:51.531Z,21.72
2022-09-07T09:52:30.394Z,21.68
2022-09-07T09:55:17.230Z,21.56
2022-09-07T10:01:21.140Z,21.86
2022-09-07T10:06:18.674Z,21.71
2022-09-07T10:08:55.321Z,21.68
2022-09-07T10:14:29.617Z,22.31
2022-09-07T10:30:56.527Z,21.64
2022-09-07T10:33:34.458Z,21.79
2022-09-07T10:36:10.844Z,21.77
2022-09-07T10:38:45.099Z,22.11
2022-09-07T10:41:11.966Z,22.07
2022-09-07T10:43:44.986Z,22.08
2022-09-07T10:46:57.307Z,22.16
2022-09-07T10:49:28.193Z,22.48
2022-09-07T10:52:13.658Z,22.16
2022-09-07T10:54:48.677Z,22.35
2022-09-07T10:57:33.478Z,22.54
2022-09-07T11:00:10.537Z,22.57
2022-09-07T11:06:13.970Z,22.88
2022-09-07T11:09:19.385Z,22.39
2022-09-07T11:12:07.247Z,22.32
2022-09-07T11:14:41.541Z,22.34
2022-09-07T11:17:15.135Z,22.34
2022-09-07T11:19:49.171Z,22.44
2022-09-07T11:22:23.052Z,22.68
2022-09-07T11:27:47.355Z,23.02
2022-09-07T11:30:20.005Z,22.86
2022-09-07T11:32:54.138Z,22.45
2022-09-07T11:35:30.207Z,22.62
2022-09-07T11:38:03.794Z,22.88
2022-09-07T11:40:34.149Z,23.08
2022-09-07T11:43:11.569Z,23.16
2022-09-07T11:45:44.485Z,23.19
2022-09-07T11:48:19.608Z,23.19
2022-09-07T11:50:53.414Z,22.95
2022-09-07T11:53:24.307Z,22.85
2022-09-07T11:55:56.548Z,22.83
2022-09-07T11:58:42.544Z,22.91
2022-09-07T12:01:20.424Z,23.38
2022-09-07T12:04:24.725Z,23.84
2022-09-07T12:07:17.020Z,24.09
2022-09-07T12:09:57.270Z,24.03
2022-09-07T12:12:50.598Z,23.42
2022-09-07T12:15:30.288Z,23.86
2022-09-07T12:18:16.760Z,24.10
2022-09-07T12:20:45.414Z,24.00
2022-09-07T12:23:26.736Z,23.79
2022-09-07T12:26:32.166Z,23.58
2022-09-07T12:29:20.146Z,23.32
2022-09-07T12:34:59.399Z,23.18
2022-09-07T12:37:45.429Z,22.77
2022-09-07T12:40:46.137Z,22.64
2022-09-07T12:43:52.536Z,22.67
2022-09-07T12:46:41.778Z,22.93
2022-09-07T12:49:32.200Z,23.27
2022-09-07T12:52:15.125Z,22.99
2022-09-07T12:55:04.392Z,22.72
2022-09-07T12:57:46.411Z,22.92
2022-09-07T13:00:20.497Z,23.18
2022-09-07T13:07:01.677Z,23.14
2022-09-07T13:09:23.817Z,22.94
2022-09-07T13:11:50.653Z,22.86
2022-09-07T13:14:23.259Z,23.15
2022-09-07T13:17:29.496Z,23.48
2022-09-07T13:20:21.373Z,23.72
2022-09-07T13:22:55.712Z,23.76
2022-09-07T13:25:45.669Z,23.87
2022-09-07T13:28:37.445Z,23.89
2022-09-07T13:31:27.832Z,23.72
2022-09-07T13:33:55.082Z,23.85
2022-09-07T13:36:39.015Z,24.33
2022-09-07T13:39:11.501Z,24.50
2022-09-07T13:41:43.345Z,24.23
2022-09-07T13:44:25.909Z,24.03
2022-09-07T13:47:02.917Z,23.94
2022-09-07T13:49:43.418Z,23.66
2022-09-07T13:52:15.766Z,23.66
2022-09-07T13:54:58.642Z,23.21
2022-09-07T13:57:32.232Z,23.05
2022-09-07T13:59:59.374Z,23.35
2022-09-07T14:02:32.304Z,23.34
2022-09-07T14:05:00.714Z,23.32
2022-09-07T14:07:29.227Z,23.38
2022-09-07T14:10:10.388Z,23.80
2022-09-07T14:12:43.727Z,24.25
2022-09-07T14:15:17.096Z,24.59
2022-09-07T14:17:46.353Z,24.43
2022-09-07T14:20:14.602Z,24.42
2022-09-07T14:22:42.829Z,24.59
2022-09-07T14:25:16.337Z,24.44
2022-09-07T14:27:45.497Z,24.20
2022-09-07T14:30:21.988Z,24.02
2022-09-07T14:32:53.108Z,23.82
2022-09-07T14:35:22.507Z,23.77
2022-09-07T14:37:50.759Z,23.95
2022-09-07T14:40:21.807Z,23.93
2022-09-07T14:42:49.915Z,23.73
2022-09-07T14:45:19.138Z,23.52
2022-09-07T14:47:47.173Z,23.49
2022-09-07T14:50:21.279Z,23.41
2022-09-07T14:53:34.233Z,23.32
2022-09-07T14:55:39.399Z,23.63
2022-09-07T14:58:30.300Z,23.69
2022-09-07T15:03:59.167Z,23.84
2022-09-07T15:09:29.141Z,24.05
2022-09-07T15:12:04.338Z,24.13
2022-09-07T15:14:31.394Z,23.64
2022-09-07T15:19:47.167Z,24.07
2022-09-07T15:22:15.572Z,24.07
2022-09-07T15:24:42.273Z,23.91
2022-09-07T15:27:18.974Z,23.85
2022-09-07T15:29:45.817Z,23.89
2022-09-07T15:32:12.935Z,23.45
2022-09-07T15:34:39.765Z,23.34
2022-09-07T15:38:01.194Z,23.21
2022-09-07T15:39:55.694Z,22.87
2022-09-07T15:45:09.867Z,23.08
2022-09-07T15:47:47.985Z,23.22
2022-09-07T15:50:18.533Z,23.39
2022-09-07T15:52:46.435Z,23.40
2022-09-07T15:55:17.672Z,23.49
2022-09-07T15:57:49.213Z,23.43
2022-09-07T16:00:17.464Z,23.24
2022-09-07T16:05:31.646Z,23.07
2022-09-07T16:11:04.758Z,22.98
2022-09-07T16:13:32.685Z,22.82
2022-09-07T16:16:00.555Z,22.70
2022-09-07T16:18:31.382Z,22.57
2022-09-07T16:21:04.810Z,22.35
2022-09-07T16:23:31.557Z,22.08
2022-09-07T16:26:01.540Z,22.03
2022-09-07T16:28:29.231Z,21.71
2022-09-07T16:30:56.575Z,21.49
2022-09-07T16:33:31.279Z,21.35
2022-09-07T16:36:06.207Z,21.40
2022-09-07T16:38:49.054Z,21.30
2022-09-07T16:41:20.078Z,21.29
2022-09-07T16:43:47.133Z,21.26
2022-09-07T16:46:16.693Z,21.27
2022-09-07T16:48:44.114Z,21.15
2022-09-07T16:51:13.632Z,21.25
2022-09-07T16:53:40.633Z,21.28
2022-09-07T16:56:10.416Z,21.30
2022-09-07T16:58:40.493Z,21.47
2022-09-07T17:01:08.911Z,21.41
2022-09-07T17:03:36.439Z,21.39
2022-09-07T17:06:05.418Z,21.40
2022-09-07T17:08:33.694Z,21.28
2022-09-07T17:11:01.072Z,21.30
2022-09-07T17:13:28.380Z,21.25
2022-09-07T17:16:01.998Z,21.13
2022-09-07T17:21:16.611Z,20.89
2022-09-07T17:23:51.069Z,20.78
2022-09-07T17:26:22.455Z,20.75
2022-09-07T17:28:51.064Z,20.67
2022-09-07T17:34:08.778Z,20.57
2022-09-07T17:36:35.587Z,20.47
2022-09-07T17:39:19.132Z,20.44
2022-09-07T17:41:46.716Z,20.42
2022-09-07T17:44:13.594Z,20.38
2022-09-07T17:46:41.866Z,20.25
2022-09-07T17:49:12.346Z,20.20
2022-09-07T17:51:39.791Z,20.09
2022-09-07T17:54:11.474Z,19.99
2022-09-07T17:56:39.288Z,20.08
2022-09-07T18:01:54.696Z,19.87
2022-09-07T18:04:22.338Z,19.79
2022-09-07T18:06:49.258Z,19.85
2022-09-07T18:09:16.587Z,19.74
2022-09-07T18:11:48.136Z,19.65
2022-09-07T18:14:16.512Z,19.58
2022-09-07T18:16:45.888Z,19.56
2022-09-07T18:19:14.299Z,19.56
2022-09-07T18:21:43.088Z,19.50
2022-09-07T18:24:13.999Z,19.43
2022-09-07T18:26:41.128Z,19.38
2022-09-07T18:29:27.310Z,19.35
2022-09-07T18:31:55.495Z,19.33
2022-09-07T18:34:23.773Z,19.23
2022-09-07T18:36:50.693Z,19.20
2022-09-07T18:39:17.696Z,19.17
2022-09-07T18:41:44.453Z,19.12
2022-09-07T18:46:57.980Z,18.94
2022-09-07T18:49:26.315Z,18.84
2022-09-07T18:54:41.385Z,18.69
2022-09-07T18:57:08.377Z,18.67
2022-09-07T18:59:35.361Z,18.55
2022-09-07T19:02:04.667Z,18.45
2022-09-07T19:07:21.021Z,18.33
2022-09-07T19:09:48.435Z,18.25
2022-09-07T19:12:15.612Z,18.17
2022-09-07T19:14:42.492Z,18.10
2022-09-07T19:17:11.011Z,18.07
2022-09-07T19:19:39.708Z,18.03
2022-09-07T19:22:06.558Z,18.09
2022-09-07T19:24:33.540Z,18.10
2022-09-07T19:27:01.161Z,18.03
2022-09-07T19:29:29.173Z,18.06
2022-09-07T19:32:05.571Z,18.02
2022-09-07T19:34:32.834Z,17.99
2022-09-07T19:37:01.350Z,18.00
2022-09-07T19:39:28.321Z,17.91
2022-09-07T19:41:55.133Z,17.90
2022-09-07T19:44:22.129Z,17.82
2022-09-07T19:46:50.173Z,17.78
2022-09-07T19:49:17.105Z,17.70
2022-09-07T19:51:44.053Z,17.61
2022-09-07T19:54:13.648Z,17.52
2022-09-07T19:56:42.748Z,17.49
2022-09-07T19:59:09.807Z,17.44
2022-09-07T20:01:37.745Z,17.33
2022-09-07T20:04:06.815Z,17.23
2022-09-07T20:06:36.667Z,17.09
2022-09-07T20:09:03.623Z,16.99
2022-09-07T20:11:32.480Z,16.92
2022-09-07T20:13:59.587Z,16.85
2022-09-07T20:16:28.232Z,16.85
2022-09-07T20:18:55.276Z,16.75
2022-09-07T20:21:23.859Z,16.70
2022-09-07T20:23:51.267Z,16.64
2022-09-07T20:26:20.800Z,16.56
2022-09-07T20:29:05.873Z,16.47
2022-09-07T20:31:40.275Z,16.40
2022-09-07T20:34:07.111Z,16.37
2022-09-07T20:36:33.857Z,16.43
2022-09-07T20:39:00.946Z,16.37
2022-09-07T20:41:29.741Z,16.42
2022-09-07T20:44:00.030Z,16.39
2022-09-07T20:46:28.486Z,16.34
2022-09-07T20:48:55.938Z,16.30
2022-09-07T20:51:23.102Z,16.28
2022-09-07T20:53:50.334Z,16.26
2022-09-07T20:56:18.960Z,16.27
2022-09-07T20:58:47.045Z,16.31
2022-09-07T21:01:17.844Z,16.36
2022-09-07T21:03:49.008Z,16.42
2022-09-07T21:06:16.960Z,16.40
2022-09-07T21:08:45.616Z,16.43
2022-09-07T21:11:15.191Z,16.49
2022-09-07T21:13:42.789Z,16.46
2022-09-07T21:16:11.687Z,16.41
2022-09-07T21:18:41.037Z,16.31
2022-09-07T21:21:23.935Z,16.29
2022-09-07T21:23:55.737Z,16.13
2022-09-07T21:26:22.771Z,16.07
2022-09-07T21:28:54.360Z,15.99
2022-09-07T21:31:21.292Z,15.92
2022-09-07T21:33:54.300Z,15.85
2022-09-07T21:36:21.234Z,15.82
2022-09-07T21:38:48.380Z,15.77
2022-09-07T21:41:19.614Z,15.81
2022-09-07T21:43:46.716Z,15.86
2022-09-07T21:46:16.428Z,15.85
2022-09-07T21:48:43.947Z,15.88
2022-09-07T21:51:12.896Z,15.90
2022-09-07T21:53:40.138Z,15.95
2022-09-07T21:56:11.088Z,15.96
2022-09-07T21:58:38.588Z,16.00
2022-09-07T22:01:14.808Z,16.03
2022-09-07T22:03:55.325Z,16.01
2022-09-07T22:06:43.983Z,16.08
2022-09-07T22:09:14.492Z,16.09
2022-09-07T22:11:50.731Z,16.16
2022-09-07T22:14:35.625Z,16.15
2022-09-07T22:17:02.809Z,16.18
2022-09-07T22:19:40.112Z,16.21
2022-09-07T22:22:08.710Z,16.25
2022-09-07T22:24:35.481Z,16.27
2022-09-07T22:27:02.267Z,16.32
2022-09-07T22:29:29.123Z,16.33
2022-09-07T22:31:56.044Z,16.35
2022-09-07T22:34:22.884Z,16.39
2022-09-07T22:36:49.750Z,16.40
2022-09-07T22:39:18.923Z,16.38
2022-09-07T22:41:47.469Z,16.42
2022-09-07T22:44:16.028Z,16.40
2022-09-07T22:46:45.166Z,16.41
2022-09-07T22:49:13.180Z,16.48
2022-09-07T22:51:40.007Z,16.43
2022-09-07T22:54:07.247Z,16.37
2022-09-07T22:56:37.306Z,16.44
2022-09-07T22:59:07.399Z,16.43
2022-09-07T23:01:41.157Z,16.40
2022-09-07T23:04:11.572Z,16.44
2022-09-07T23:06:40.495Z,16.50
2022-09-07T23:09:10.341Z,16.54
2022-09-07T23:11:47.126Z,16.57
2022-09-07T23:14:16.304Z,16.58
2022-09-07T23:16:43.739Z,16.58
2022-09-07T23:19:22.261Z,16.60
2022-09-07T23:21:49.061Z,16.62
2022-09-07T23:24:17.977Z,16.64
2022-09-07T23:26:47.151Z,16.67
2022-09-07T23:29:15.145Z,16.62
2022-09-07T23:31:42.599Z,16.46
2022-09-07T23:34:09.599Z,16.35
2022-09-07T23:36:37.148Z,16.25
2022-09-07T23:39:04.271Z,16.22
2022-09-07T23:41:31.577Z,16.15
2022-09-07T23:44:00.512Z,16.11
2022-09-07T23:46:27.469Z,16.01
2022-09-07T23:48:54.318Z,15.97
2022-09-07T23:51:24.207Z,15.95
2022-09-07T23:53:51.954Z,15.91
2022-09-07T23:56:18.797Z,15.89
2022-09-07T23:58:45.591Z,15.84
